Time;durP1;ratioP1;P1;durP2;ratioP2;P2;SDS_P1;SDS_P2;PMS_P1;PMS_P2;Temp;Humidity;BMP_temperature;BMP_pressure;BME280_temperature;BME280_humidity;BME280_pressure;Samples;Min_cycle;Max_cycle;Signal;HPM_P1;HPM_P2
2022/02/15 00:01:18;;;;;;;12.50;5.70;;;;;;;3.16;48.97;91989.97;2051523;70;20164;-73
2022/02/15 00:03:44;;;;;;;15.45;5.80;;;;;;;3.24;49.22;91984.28;2051850;70;20275;-68
2022/02/15 00:06:09;;;;;;;9.75;5.57;;;;;;;3.32;49.64;91976.53;2051525;70;20147;-70
2022/02/15 00:08:35;;;;;;;13.20;6.20;;;;;;;3.27;49.31;91983.84;2051739;70;20218;-67
2022/02/15 00:11:00;;;;;;;12.23;5.57;;;;;;;3.32;49.35;91982.09;2051599;70;20162;-71
2022/02/15 00:13:26;;;;;;;12.27;5.30;;;;;;;3.38;48.81;91979.03;2051625;70;20149;-68
2022/02/15 00:15:52;;;;;;;11.38;5.32;;;;;;;3.34;49.20;91973.91;2051718;70;20617;-69
2022/02/15 00:18:17;;;;;;;11.80;5.57;;;;;;;3.05;50.29;91971.78;2051140;70;20293;-69
2022/02/15 00:20:44;;;;;;;14.60;6.55;;;;;;;3.06;50.55;91978.06;2051719;70;20170;-68
2022/02/15 00:23:10;;;;;;;13.32;5.95;;;;;;;3.24;49.78;91973.88;2051609;70;20154;-68
2022/02/15 00:25:35;;;;;;;16.67;7.20;;;;;;;3.19;49.81;91972.09;2051563;70;20185;-68
2022/02/15 00:28:01;;;;;;;18.73;7.25;;;;;;;3.10;50.82;91966.53;2051774;70;20245;-68
2022/02/15 00:30:27;;;;;;;15.52;6.78;;;;;;;3.21;50.79;91963.19;2050599;70;20165;-70
2022/02/15 00:32:53;;;;;;;14.70;6.72;;;;;;;3.18;50.99;91970.66;2050910;70;20154;-73
2022/02/15 00:35:19;;;;;;;12.30;6.13;;;;;;;3.24;51.21;91973.16;2051507;70;20150;-71
2022/02/15 00:37:46;;;;;;;10.70;5.63;;;;;;;3.21;50.83;91974.31;2048443;70;20146;-71
2022/02/15 00:40:13;;;;;;;13.82;5.10;;;;;;;3.40;49.66;91968.81;2051646;70;20586;-69
2022/02/15 00:42:40;;;;;;;12.02;5.25;;;;;;;3.23;50.02;91971.69;2051131;70;20179;-68
2022/02/15 00:45:07;;;;;;;12.23;5.80;;;;;;;3.09;50.38;91970.63;2050914;70;20146;-68
2022/02/15 00:47:33;;;;;;;12.93;5.28;;;;;;;3.10;51.05;91970.03;2051537;70;20196;-68
2022/02/15 00:49:59;;;;;;;8.43;4.55;;;;;;;3.24;50.41;91973.16;2048356;70;20170;-70
2022/02/15 00:52:27;;;;;;;9.15;4.43;;;;;;;3.27;50.00;91972.00;2051383;70;20686;-71
2022/02/15 00:54:56;;;;;;;5.65;3.63;;;;;;;3.37;50.14;91981.09;2048332;70;20245;-69
2022/02/15 00:57:22;;;;;;;7.40;3.30;;;;;;;3.31;49.60;91986.22;2050573;70;20257;-72
2022/02/15 00:59:49;;;;;;;5.70;2.97;;;;;;;3.39;49.75;91986.81;2048031;70;20231;-69
2022/02/15 01:02:15;;;;;;;11.50;4.95;;;;;;;3.21;50.28;91979.88;2051449;70;20150;-71
2022/02/15 01:04:41;;;;;;;10.75;5.05;;;;;;;3.24;49.97;91979.44;2051538;70;20185;-68
2022/02/15 01:07:08;;;;;;;11.27;5.10;;;;;;;2.92;51.34;91977.72;2048318;70;20241;-73
2022/02/15 01:09:34;;;;;;;15.73;5.00;;;;;;;2.97;51.33;91973.94;2051011;70;20138;-71
2022/02/15 01:12:01;;;;;;;11.50;5.20;;;;;;;3.14;50.88;91975.16;2051553;69;20146;-72
2022/02/15 01:14:27;;;;;;;9.95;4.82;;;;;;;3.09;51.19;91970.63;2053704;70;20170;-72
2022/02/15 01:16:53;;;;;;;12.90;4.95;;;;;;;3.18;50.57;91975.47;2045327;70;20207;-72
2022/02/15 01:19:18;;;;;;;9.48;4.60;;;;;;;3.27;50.33;91966.44;2051604;70;20172;-72
2022/02/15 01:21:44;;;;;;;9.48;4.60;;;;;;;3.19;50.79;91968.59;2051428;70;20150;-68
2022/02/15 01:24:10;;;;;;;10.10;5.28;;;;;;;3.27;50.39;91969.94;2053595;70;20146;-71
2022/02/15 01:26:35;;;;;;;12.10;5.10;;;;;;;3.31;49.90;91972.31;2048110;70;20146;-72
2022/02/15 01:29:02;;;;;;;14.65;5.07;;;;;;;3.31;50.21;91975.09;2048236;70;20517;-72
2022/02/15 01:31:28;;;;;;;10.38;5.20;;;;;;;3.36;50.03;91970.56;2048239;70;20146;-69
2022/02/15 01:33:54;;;;;;;10.15;4.90;;;;;;;3.20;50.77;91976.34;2051266;70;20150;-69
2022/02/15 01:36:20;;;;;;;8.88;5.00;;;;;;;3.25;50.21;91986.50;2048089;70;20772;-69
2022/02/15 01:38:45;;;;;;;9.30;4.72;;;;;;;3.37;50.13;91980.38;2053683;70;20150;-68
2022/02/15 01:41:12;;;;;;;13.50;4.97;;;;;;;3.22;50.87;91989.69;2050917;70;20142;-74
2022/02/15 01:43:43;;;;;;;8.70;4.68;;;;;;;3.22;51.83;91990.44;2051481;70;20189;-73
2022/02/15 01:46:11;;;;;;;7.30;3.92;;;;;;;3.34;50.91;91992.66;2051280;70;20155;-73
2022/02/15 01:48:39;;;;;;;9.48;4.53;;;;;;;3.51;49.08;91998.84;2048029;70;20240;-70
2022/02/15 01:51:06;;;;;;;8.13;4.65;;;;;;;3.46;50.12;91988.72;2053899;70;20166;-70
2022/02/15 01:53:32;;;;;;;11.23;4.85;;;;;;;3.45;50.73;91995.63;2051526;70;20551;-69
2022/02/15 01:55:59;;;;;;;8.98;4.97;;;;;;;3.46;50.21;91988.72;2048121;70;20181;-74
2022/02/15 01:58:26;;;;;;;10.55;5.10;;;;;;;3.43;49.85;91981.53;2048262;70;20142;-69
2022/02/15 02:00:52;;;;;;;13.77;5.45;;;;;;;3.29;50.92;91974.91;2048005;70;20213;-75
2022/02/15 02:03:29;;;;;;;9.25;4.97;;;;;;;3.37;50.28;91981.09;2048089;70;20265;-72
2022/02/15 02:05:55;;;;;;;12.52;5.28;;;;;;;3.48;49.49;91974.22;2051262;70;20234;-72
2022/02/15 02:08:31;;;;;;;11.55;5.32;;;;;;;3.48;49.85;91971.44;2051829;70;20201;-69
2022/02/15 02:10:58;;;;;;;12.88;4.47;;;;;;;3.41;50.26;91977.88;2051854;70;20193;-70
2022/02/15 02:13:44;;;;;;;10.43;5.30;;;;;;;3.43;50.25;91980.81;2046378;70;20182;-69
2022/02/15 02:16:10;;;;;;;10.60;4.97;;;;;;;3.54;49.34;91981.00;2051712;70;20253;-69
2022/02/15 02:19:00;;;;;;;11.57;5.45;;;;;;;3.23;50.32;91980.75;2048738;70;20142;-74
2022/02/15 02:21:37;;;;;;;10.50;5.40;;;;;;;3.41;50.60;91980.66;2054118;69;20157;-68
2022/02/15 02:24:04;;;;;;;10.32;5.20;;;;;;;3.27;50.99;91988.69;2051285;70;20231;-69
2022/02/15 02:26:30;;;;;;;7.82;4.68;;;;;;;3.44;50.47;91983.03;2051304;70;20316;-69
2022/02/15 02:28:56;;;;;;;8.82;5.20;;;;;;;3.40;51.12;91985.50;2051974;70;20149;-75
2022/02/15 02:31:26;;;;;;;8.63;4.53;;;;;;;3.65;49.07;91976.16;2053952;69;20315;-73
2022/02/15 02:34:00;;;;;;;9.30;5.07;;;;;;;3.41;50.85;91980.66;2049952;70;20682;-75
2022/02/15 02:36:26;;;;;;;10.02;4.80;;;;;;;3.51;50.42;91975.84;2051847;70;20150;-68
2022/02/15 02:38:52;;;;;;;13.00;5.25;;;;;;;3.46;51.13;91977.59;2048476;70;20209;-73
2022/02/15 02:41:18;;;;;;;11.75;5.60;;;;;;;3.27;53.12;91977.56;2051342;70;20197;-68
2022/02/15 02:43:44;;;;;;;20.55;5.90;;;;;;;3.37;52.15;91978.31;2051170;70;20242;-71
2022/02/15 02:46:10;;;;;;;7.75;4.72;;;;;;;3.52;51.26;91985.66;2051561;70;20573;-69
2022/02/15 02:48:36;;;;;;;11.30;5.20;;;;;;;3.62;50.63;91985.69;2048431;70;20150;-68
2022/02/15 02:51:02;;;;;;;10.77;5.20;;;;;;;3.37;51.48;91983.16;2048514;70;20165;-71
2022/02/15 02:53:27;;;;;;;14.10;5.97;;;;;;;3.10;52.25;91994.31;2051716;70;20632;-70
2022/02/15 02:55:54;;;;;;;12.02;5.97;;;;;;;3.36;51.95;91985.19;2048471;70;20146;-75
2022/02/15 02:58:19;;;;;;;12.10;6.05;;;;;;;3.39;51.66;92003.53;2047494;70;20548;-68
2022/02/15 03:00:45;;;;;;;15.38;7.13;;;;;;;3.52;50.48;91994.00;2044198;70;20683;-69
2022/02/15 03:03:14;;;;;;;14.52;7.57;;;;;;;3.46;51.71;92001.91;2044594;70;20157;-69
2022/02/15 03:05:44;;;;;;;12.52;6.68;;;;;;;3.41;52.50;92005.72;2044539;70;20234;-68
2022/02/15 03:08:10;;;;;;;12.82;6.43;;;;;;;3.48;52.27;92013.94;2044621;70;20151;-70
2022/02/15 03:10:36;;;;;;;14.75;6.50;;;;;;;3.47;52.01;92009.66;2047390;70;20531;-68
2022/02/15 03:13:04;;;;;;;11.98;6.30;;;;;;;3.60;51.51;92010.59;2047199;70;20158;-68
2022/02/15 03:15:31;;;;;;;11.98;6.00;;;;;;;3.64;51.84;92011.63;2044593;70;20155;-68
2022/02/15 03:18:01;;;;;;;10.57;5.82;;;;;;;3.62;51.93;92005.91;2044382;70;20188;-68
2022/02/15 03:20:27;;;;;;;12.20;6.20;;;;;;;3.54;51.55;92016.44;2044438;70;20198;-67
2022/02/15 03:22:53;;;;;;;11.40;6.40;;;;;;;3.34;52.55;92018.41;2045027;70;20603;-68
2022/02/15 03:25:19;;;;;;;10.00;5.80;;;;;;;3.52;51.51;92019.06;2044464;70;20158;-68
2022/02/15 03:27:46;;;;;;;12.88;6.03;;;;;;;3.56;52.20;92027.72;2044507;70;20282;-67
2022/02/15 03:30:12;;;;;;;10.27;5.45;;;;;;;3.69;51.11;92021.00;2044434;70;20154;-67
2022/02/15 03:32:43;;;;;;;12.73;5.60;;;;;;;3.66;49.89;92039.59;2046163;70;20207;-68
2022/02/15 03:35:10;;;;;;;11.10;6.03;;;;;;;3.60;51.59;92046.78;2044484;70;20214;-69
2022/02/15 03:37:38;;;;;;;12.80;5.85;;;;;;;3.61;51.96;92037.09;2047173;70;20139;-71
2022/02/15 03:40:05;;;;;;;12.95;5.50;;;;;;;3.65;51.75;92045.75;2047253;70;20135;-71
2022/02/15 03:45:17;;;;;;;16.65;7.90;;;;;;;3.55;51.74;92049.25;2047326;70;20143;-69
2022/02/15 03:48:12;;;;;;;21.20;9.48;;;;;;;3.28;52.54;92048.56;2043232;70;20147;-72
2022/02/15 03:50:40;;;;;;;19.55;9.80;;;;;;;3.50;52.49;92057.88;2044549;70;20143;-73
2022/02/15 03:53:07;;;;;;;23.98;12.45;;;;;;;3.51;51.79;92068.41;2047208;70;20251;-68
2022/02/15 03:55:34;;;;;;;19.55;9.88;;;;;;;3.42;52.02;92060.78;2047202;70;20237;-71
2022/02/15 03:58:00;;;;;;;31.95;13.68;;;;;;;3.38;52.85;92074.38;2047108;70;20147;-67
2022/02/15 04:00:26;;;;;;;26.75;13.30;;;;;;;3.53;51.69;92076.94;2049024;70;20166;-68
2022/02/15 04:03:02;;;;;;;19.80;10.75;;;;;;;3.41;53.36;92086.41;2047614;70;20182;-67
2022/02/15 04:05:28;;;;;;;20.48;8.98;;;;;;;3.30;53.46;92082.84;2045111;70;20181;-69
2022/02/15 04:07:55;;;;;;;18.73;8.98;;;;;;;3.19;54.29;92094.50;2044970;70;20167;-70
2022/02/15 04:10:21;;;;;;;20.83;10.07;;;;;;;3.07;56.07;92096.34;2050413;70;20233;-72
2022/02/15 04:12:48;;;;;;;14.57;7.45;;;;;;;3.01;57.71;92104.19;2050521;70;20605;-67
2022/02/15 04:15:16;;;;;;;14.00;6.78;;;;;;;3.03;57.71;92110.66;2044965;70;20226;-67
2022/02/15 04:17:47;;;;;;;12.55;5.40;;;;;;;2.85;59.25;92116.84;2047614;70;20543;-69
2022/02/15 04:20:14;;;;;;;10.77;5.60;;;;;;;2.85;60.83;92127.97;2047715;70;20169;-69
2022/02/15 04:22:41;;;;;;;10.48;5.50;;;;;;;3.05;61.30;92126.75;2050328;70;20606;-69
2022/02/15 04:25:10;;;;;;;11.23;6.40;;;;;;;2.98;62.13;92133.91;2045273;70;20602;-70
2022/02/15 04:27:37;;;;;;;12.48;6.15;;;;;;;3.22;62.31;92137.13;2048242;70;20178;-70
2022/02/15 04:30:04;;;;;;;11.45;6.10;;;;;;;3.52;58.94;92142.25;2048549;70;20193;-72
2022/02/15 04:32:31;;;;;;;11.10;6.32;;;;;;;3.62;60.23;92147.88;2047081;70;20178;-69
2022/02/15 04:34:58;;;;;;;13.48;5.93;;;;;;;3.67;58.80;92151.72;2045201;70;20166;-70
2022/02/15 04:37:24;;;;;;;10.25;6.07;;;;;;;3.74;57.61;92156.41;2045217;70;20154;-72
2022/02/15 04:39:51;;;;;;;13.90;6.45;;;;;;;3.65;62.52;92166.19;2045207;70;20142;-69
2022/02/15 04:42:18;;;;;;;10.57;5.90;;;;;;;3.65;62.10;92166.19;2045311;70;20241;-70
2022/02/15 04:44:44;;;;;;;11.80;5.97;;;;;;;3.69;62.90;92163.72;2045675;70;20150;-71
2022/02/15 04:47:13;;;;;;;12.18;6.25;;;;;;;3.62;64.53;92167.34;2048364;70;20200;-69
2022/02/15 04:49:38;;;;;;;11.57;6.38;;;;;;;3.59;66.29;92168.50;2048453;70;20146;-70
2022/02/15 04:52:06;;;;;;;10.32;6.03;;;;;;;3.56;66.00;92169.66;2048509;70;20268;-70
2022/02/15 04:54:32;;;;;;;11.52;6.97;;;;;;;3.58;66.00;92167.03;2048447;70;20150;-69
2022/02/15 04:56:58;;;;;;;15.10;9.32;;;;;;;3.59;66.48;92174.06;2051731;70;20193;-70
2022/02/15 04:59:23;;;;;;;18.88;9.13;;;;;;;3.48;67.34;92169.78;2048335;70;20161;-71
2022/02/15 05:01:51;;;;;;;15.88;9.85;;;;;;;3.53;66.78;92165.25;2051704;70;20229;-69
2022/02/15 05:07:06;;;;;;;13.23;7.00;;;;;;;3.42;67.45;92160.94;2051726;70;20232;-70
2022/02/15 05:09:37;;;;;;;13.45;7.35;;;;;;;3.44;67.46;92160.38;2048415;70;20162;-73
2022/02/15 05:12:04;;;;;;;12.82;7.72;;;;;;;3.56;67.56;92161.31;2046561;70;20142;-70
2022/02/15 05:14:31;;;;;;;13.63;7.68;;;;;;;3.44;69.08;92160.38;2045132;70;20241;-69
2022/02/15 05:16:57;;;;;;;14.68;8.30;;;;;;;3.46;68.03;92168.88;2045014;70;20135;-71
2022/02/15 05:19:27;;;;;;;16.15;7.30;;;;;;;3.58;63.69;92155.91;2045115;70;20174;-70
2022/02/15 05:22:00;;;;;;;12.77;7.85;;;;;;;3.41;67.20;92170.59;2045142;70;20153;-70
2022/02/15 05:24:30;;;;;;;11.30;6.90;;;;;;;3.50;65.63;92172.72;2045114;70;20536;-70
2022/02/15 05:26:57;;;;;;;12.43;6.85;;;;;;;3.66;67.03;92169.69;2045126;70;20158;-70
2022/02/15 05:29:43;;;;;;;9.60;5.78;;;;;;;3.69;65.12;92169.28;2047821;70;20170;-69
2022/02/15 05:32:36;;;;;;;12.57;6.65;;;;;;;3.68;63.59;92178.22;2046538;70;20158;-69
2022/02/15 05:35:07;;;;;;;9.70;5.72;;;;;;;3.49;65.86;92168.47;2045070;70;20138;-68
2022/02/15 05:37:38;;;;;;;11.50;5.75;;;;;;;3.62;66.28;92169.38;2048349;70;20638;-68
2022/02/15 05:40:06;;;;;;;8.65;5.18;;;;;;;3.64;65.17;92166.78;2045072;70;20153;-69
2022/02/15 05:42:44;;;;;;;9.93;5.80;;;;;;;3.53;64.93;92173.63;2048073;70;20245;-69
2022/02/15 05:45:11;;;;;;;10.18;6.15;;;;;;;3.65;65.96;92180.09;2048271;70;20151;-69
2022/02/15 05:47:50;;;;;;;9.93;6.00;;;;;;;3.37;66.95;92192.56;2045412;70;20193;-69
2022/02/15 05:53:00;;;;;;;10.35;5.97;;;;;;;3.31;66.88;92198.38;2045478;70;20491;-69
2022/02/15 05:55:26;;;;;;;13.35;7.07;;;;;;;3.15;67.00;92194.31;2048215;70;20150;-70
2022/02/15 05:57:56;;;;;;;12.63;6.50;;;;;;;3.47;66.45;92195.38;2045493;70;20158;-71
2022/02/15 06:00:22;;;;;;;9.68;5.90;;;;;;;3.54;65.24;92200.84;2048181;70;20154;-69
2022/02/15 06:02:52;;;;;;;9.52;6.15;;;;;;;3.55;65.97;92199.53;2048057;70;20161;-74
2022/02/15 06:05:34;;;;;;;10.20;6.05;;;;;;;3.50;65.68;92194.97;2045584;70;20162;-74
2022/02/15 06:08:00;;;;;;;9.40;6.10;;;;;;;3.70;62.50;92197.84;2048218;70;20158;-72
2022/02/15 06:10:30;;;;;;;11.75;6.65;;;;;;;3.45;66.03;92211.94;2045471;70;20158;-71
2022/02/15 06:13:06;;;;;;;12.00;7.30;;;;;;;3.33;66.78;92217.28;2048270;70;20178;-69
2022/02/15 06:15:35;;;;;;;12.82;7.03;;;;;;;3.35;67.56;92211.88;2048857;70;20241;-73
2022/02/15 06:18:05;;;;;;;11.25;7.35;;;;;;;3.46;67.55;92221.75;2045400;70;20150;-71
2022/02/15 06:20:37;;;;;;;12.23;7.45;;;;;;;3.57;67.33;92221.22;2045446;70;20150;-71
2022/02/15 06:23:03;;;;;;;16.08;7.68;;;;;;;3.38;67.68;92224.63;2045475;70;20158;-71
2022/02/15 06:25:29;;;;;;;14.40;7.97;;;;;;;3.39;66.15;92226.13;2048209;70;20205;-70
2022/02/15 06:27:56;;;;;;;13.45;8.32;;;;;;;3.42;69.37;92227.00;2048863;70;20131;-77
2022/02/15 06:30:42;;;;;;;13.73;7.72;;;;;;;3.50;69.44;92231.16;2048491;70;20154;-70
2022/02/15 06:33:14;;;;;;;15.57;8.25;;;;;;;3.43;69.60;92220.84;2048165;70;20158;-70
2022/02/15 06:35:40;;;;;;;11.95;7.00;;;;;;;3.56;67.13;92222.53;2048843;70;20139;-70
2022/02/15 06:38:10;;;;;;;11.02;6.80;;;;;;;3.56;67.42;92216.97;2045396;70;20157;-73
2022/02/15 06:40:36;;;;;;;11.65;7.30;;;;;;;3.65;65.25;92232.25;2042695;70;20138;-68
2022/02/15 06:43:05;;;;;;;13.52;6.70;;;;;;;3.67;63.82;92227.59;2045498;70;20736;-69
2022/02/15 06:45:34;;;;;;;14.70;7.68;;;;;;;3.67;67.27;92235.94;2042791;70;20261;-69
2022/02/15 06:48:00;;;;;;;13.32;7.60;;;;;;;3.65;68.17;92240.59;2045312;70;20647;-70
2022/02/15 06:50:28;;;;;;;12.50;6.60;;;;;;;3.62;68.26;92238.97;2045394;70;20320;-70
2022/02/15 06:52:53;;;;;;;13.20;6.82;;;;;;;3.60;69.36;92245.13;2048665;70;20163;-73
2022/02/15 06:55:30;;;;;;;10.90;6.57;;;;;;;3.47;69.12;92242.69;2045308;70;20154;-73
2022/02/15 06:57:57;;;;;;;11.25;6.70;;;;;;;3.66;66.50;92242.81;2045347;70;20217;-75
2022/02/15 07:00:22;;;;;;;13.18;8.00;;;;;;;3.51;68.85;92254.16;2045634;70;20498;-71
2022/02/15 07:02:48;;;;;;;13.85;8.18;;;;;;;3.66;67.68;92248.38;2049239;70;20176;-68
2022/02/15 07:05:16;;;;;;;14.07;8.80;;;;;;;3.60;69.81;92247.19;2048561;70;20233;-71
2022/02/15 07:07:48;;;;;;;17.30;10.30;;;;;;;3.72;68.26;92253.69;2048836;70;20511;-71
2022/02/15 07:10:20;;;;;;;17.40;10.38;;;;;;;3.53;70.68;92259.88;2048749;70;20142;-69
2022/02/15 07:12:53;;;;;;;15.05;9.30;;;;;;;3.70;67.14;92265.41;2051370;70;20165;-71
2022/02/15 07:15:22;;;;;;;14.68;8.98;;;;;;;3.82;67.03;92273.97;2048130;70;20233;-71
2022/02/15 07:17:58;;;;;;;17.52;10.35;;;;;;;3.63;70.29;92273.88;2045980;70;20139;-69
2022/02/15 07:20:35;;;;;;;16.70;10.32;;;;;;;3.55;70.43;92269.13;2048587;70;20154;-70
2022/02/15 07:23:19;;;;;;;23.15;11.40;;;;;;;3.50;71.21;92274.94;2051949;70;20220;-71
2022/02/15 07:26:05;;;;;;;20.60;9.93;;;;;;;3.63;70.45;92271.81;2051880;70;20241;-72
2022/02/15 07:28:47;;;;;;;22.42;10.60;;;;;;;3.68;70.18;92265.25;2048627;70;20149;-69
2022/02/15 07:31:14;;;;;;;19.58;10.43;;;;;;;3.66;70.14;92281.03;2048450;70;20146;-69
2022/02/15 07:33:42;;;;;;;18.35;10.80;;;;;;;3.59;71.21;92276.31;2048561;70;20142;-71
2022/02/15 07:36:07;;;;;;;21.23;11.10;;;;;;;3.67;70.81;92280.50;2051352;70;20158;-69
2022/02/15 07:38:33;;;;;;;18.70;11.52;;;;;;;3.63;70.78;92287.78;2051838;70;20150;-69
2022/02/15 07:40:59;;;;;;;20.48;10.70;;;;;;;3.69;70.42;92288.97;2052134;70;20142;-70
2022/02/15 07:43:28;;;;;;;19.42;11.73;;;;;;;3.75;69.49;92288.72;2051993;70;20158;-68
2022/02/15 07:45:59;;;;;;;21.73;11.73;;;;;;;3.71;69.31;92297.50;2048616;70;20689;-69
2022/02/15 07:48:25;;;;;;;20.08;10.27;;;;;;;3.82;67.59;92304.59;2051850;70;20161;-68
2022/02/15 07:50:51;;;;;;;21.85;12.38;;;;;;;3.92;69.01;92313.00;2051710;70;20142;-68
2022/02/15 07:53:16;;;;;;;17.88;9.82;;;;;;;4.00;68.03;92300.47;2051813;70;20149;-74
2022/02/15 07:55:42;;;;;;;14.63;8.32;;;;;;;3.65;70.82;92299.81;2051909;70;20139;-72
2022/02/15 07:58:10;;;;;;;14.27;8.65;;;;;;;3.82;70.90;92299.78;2051995;70;20147;-73
2022/02/15 08:00:36;;;;;;;15.60;9.07;;;;;;;3.93;70.10;92306.84;2051591;70;20153;-68
2022/02/15 08:03:02;;;;;;;17.92;9.95;;;;;;;3.53;71.94;92307.94;2051467;70;20150;-69
2022/02/15 08:05:28;;;;;;;25.08;11.70;;;;;;;3.58;72.15;92311.78;2048325;70;20194;-70
2022/02/15 08:08:01;;;;;;;27.75;14.98;;;;;;;3.64;72.38;92300.38;2048478;70;20638;-69
2022/02/15 08:10:27;;;;;;;27.23;15.52;;;;;;;3.60;72.65;92303.56;2051962;70;20582;-71
2022/02/15 08:12:57;;;;;;;26.38;14.73;;;;;;;3.64;71.92;92306.69;2051809;70;20153;-68
2022/02/15 08:15:28;;;;;;;27.08;13.63;;;;;;;3.60;72.17;92320.28;2051958;70;20150;-70
2022/02/15 08:17:55;;;;;;;28.95;14.82;;;;;;;3.86;70.80;92318.13;2049699;70;20221;-68
2022/02/15 08:20:22;;;;;;;27.25;14.00;;;;;;;3.95;70.32;92309.09;2050978;70;20170;-69
2022/02/15 08:22:47;;;;;;;23.65;14.30;;;;;;;3.99;70.91;92307.34;2048502;70;20238;-69
2022/02/15 08:25:13;;;;;;;25.30;13.80;;;;;;;4.15;69.02;92316.22;2051676;70;20155;-71
2022/02/15 08:27:39;;;;;;;25.25;14.88;;;;;;;4.20;68.56;92309.66;2051767;70;20162;-70
2022/02/15 08:30:05;;;;;;;25.02;14.85;;;;;;;3.76;71.16;92318.06;2051891;70;20161;-69
2022/02/15 08:32:31;;;;;;;27.58;16.67;;;;;;;3.88;71.45;92315.47;2051592;70;20153;-68
2022/02/15 08:34:57;;;;;;;42.95;16.15;;;;;;;4.08;70.02;92317.06;2051733;70;20146;-69
2022/02/15 08:37:22;;;;;;;33.13;16.73;;;;;;;4.09;70.42;92318.53;2051733;70;20143;-69
2022/02/15 08:39:48;;;;;;;28.83;15.75;;;;;;;4.11;70.61;92321.47;2051742;70;20162;-68
2022/02/15 08:42:14;;;;;;;28.05;15.65;;;;;;;4.29;68.57;92327.72;2051743;70;20526;-69
2022/02/15 08:44:39;;;;;;;24.48;14.95;;;;;;;4.19;69.81;92326.94;2051793;70;20149;-75
2022/02/15 08:47:06;;;;;;;25.65;15.38;;;;;;;4.28;69.51;92315.84;2050415;70;20541;-67
2022/02/15 08:49:38;;;;;;;29.00;16.45;;;;;;;4.18;70.26;92325.47;2048541;70;20139;-68
2022/02/15 08:52:04;;;;;;;38.80;18.35;;;;;;;4.00;71.37;92316.44;2048399;70;20166;-68
2022/02/15 08:54:30;;;;;;;40.10;20.40;;;;;;;3.96;72.03;92328.00;2049501;70;20252;-68
2022/02/15 08:56:57;;;;;;;34.30;17.70;;;;;;;4.08;71.27;92314.28;2051691;70;20348;-70
2022/02/15 08:59:23;;;;;;;34.20;17.40;;;;;;;4.26;70.61;92315.72;2050941;70;20177;-71
2022/02/15 09:01:49;;;;;;;30.63;16.58;;;;;;;4.38;68.87;92320.72;2046449;70;20264;-69
2022/02/15 09:04:16;;;;;;;38.15;19.98;;;;;;;4.45;69.04;92325.47;2051749;70;20134;-70
2022/02/15 09:06:42;;;;;;;39.95;18.83;;;;;;;4.54;68.24;92327.56;2051673;70;20159;-71
2022/02/15 09:09:10;;;;;;;43.88;19.90;;;;;;;4.47;67.80;92326.34;2049242;70;20498;-69
2022/02/15 09:11:37;;;;;;;37.88;20.83;;;;;;;4.49;69.54;92342.47;2050646;70;20590;-69
2022/02/15 09:14:03;;;;;;;40.35;20.63;;;;;;;4.58;67.81;92339.00;2048614;70;20182;-67
2022/02/15 09:16:30;;;;;;;48.92;26.67;;;;;;;4.49;69.05;92318.16;2051199;70;20170;-68
2022/02/15 09:18:57;;;;;;;58.78;28.33;;;;;;;4.50;69.14;92322.41;2051718;70;20233;-70
2022/02/15 09:21:23;;;;;;;81.05;41.10;;;;;;;4.43;69.03;92323.25;2051655;70;20268;-69
2022/02/15 09:23:49;;;;;;;83.55;44.55;;;;;;;4.57;68.81;92324.31;2051701;70;20182;-67
2022/02/15 09:26:15;;;;;;;68.53;39.45;;;;;;;4.71;67.96;92333.03;2051614;70;20177;-69
2022/02/15 09:28:41;;;;;;;59.28;31.40;;;;;;;4.68;67.59;92331.44;2051607;70;20137;-68
2022/02/15 09:31:07;;;;;;;74.40;37.50;;;;;;;4.64;68.90;92330.38;2047410;70;20146;-68
2022/02/15 09:33:33;;;;;;;65.50;36.83;;;;;;;4.75;68.85;92327.03;2049922;70;20178;-69
2022/02/15 09:35:58;;;;;;;64.38;38.08;;;;;;;4.77;68.40;92319.56;2051624;70;20519;-70
2022/02/15 09:38:25;;;;;;;70.10;38.92;;;;;;;4.51;69.67;92314.78;2051723;70;20149;-71
2022/02/15 09:40:52;;;;;;;64.03;37.17;;;;;;;4.41;70.08;92323.09;2051602;70;20595;-74
2022/02/15 09:43:18;;;;;;;64.57;35.28;;;;;;;4.51;70.10;92325.94;2051586;70;20546;-70
2022/02/15 09:45:48;;;;;;;33.50;21.52;;;;;;;4.69;67.15;92324.53;2051496;70;20146;-73
2022/02/15 09:48:17;;;;;;;28.70;15.55;;;;;;;4.74;68.88;92340.25;2051613;70;20143;-69
2022/02/15 09:50:44;;;;;;;25.35;16.42;;;;;;;5.01;67.60;92342.25;2051224;70;20169;-69
2022/02/15 09:53:10;;;;;;;28.00;15.05;;;;;;;5.00;66.87;92335.91;2051573;70;20184;-69
2022/02/15 09:55:35;;;;;;;29.27;15.82;;;;;;;4.71;68.25;92337.88;2051595;70;20142;-70
2022/02/15 09:58:01;;;;;;;26.23;15.35;;;;;;;4.50;70.25;92344.72;2051573;70;20154;-69
2022/02/15 10:00:27;;;;;;;34.38;19.65;;;;;;;4.66;67.25;92342.41;2051625;70;20170;-69
2022/02/15 10:02:53;;;;;;;29.60;16.02;;;;;;;4.59;69.29;92355.16;2051401;70;20190;-71
2022/02/15 10:05:20;;;;;;;28.35;15.10;;;;;;;4.81;67.37;92358.16;2051432;70;20264;-74
2022/02/15 10:07:47;;;;;;;28.50;14.13;;;;;;;5.06;66.75;92363.53;2051438;70;20150;-74
2022/02/15 10:10:26;;;;;;;30.48;17.95;;;;;;;4.82;68.69;92357.59;2051393;70;20170;-70
2022/02/15 10:13:10;;;;;;;38.25;22.02;;;;;;;5.06;67.79;92355.91;2051579;70;20231;-69
2022/02/15 10:15:41;;;;;;;30.02;16.90;;;;;;;4.85;67.62;92361.25;2051551;70;20238;-72
2022/02/15 10:18:12;;;;;;;27.95;17.02;;;;;;;4.93;66.53;92361.88;2051543;70;20613;-69
2022/02/15 10:20:42;;;;;;;24.98;14.55;;;;;;;5.14;65.37;92366.22;2051702;70;20185;-70
2022/02/15 10:23:31;;;;;;;27.35;14.82;;;;;;;5.18;66.63;92369.28;2051474;70;20146;-71
2022/02/15 10:25:58;;;;;;;21.02;14.27;;;;;;;5.07;67.47;92367.78;2047640;70;20150;-72
2022/02/15 10:28:26;;;;;;;27.23;13.60;;;;;;;5.05;67.50;92368.38;2051670;70;20154;-70
2022/02/15 10:30:55;;;;;;;23.83;14.20;;;;;;;5.00;68.80;92365.88;2051885;70;20143;-73
2022/02/15 10:33:27;;;;;;;29.25;14.80;;;;;;;4.95;68.43;92372.44;2052077;70;20161;-71
2022/02/15 10:35:59;;;;;;;26.35;15.75;;;;;;;4.19;70.48;92375.06;2051512;70;20142;-69
2022/02/15 10:38:30;;;;;;;30.70;15.85;;;;;;;4.40;70.86;92373.81;2052134;70;20137;-71
2022/02/15 10:41:04;;;;;;;31.67;15.52;;;;;;;4.72;70.20;92373.56;2052011;70;20154;-69
2022/02/15 10:43:50;;;;;;;32.50;15.52;;;;;;;4.87;69.40;92375.38;2052120;70;20147;-69
2022/02/15 10:46:28;;;;;;;28.48;15.57;;;;;;;4.97;68.59;92378.19;2051891;70;20227;-69
2022/02/15 10:48:55;;;;;;;29.00;16.17;;;;;;;4.79;69.24;92378.28;2051978;70;20150;-69
2022/02/15 10:51:21;;;;;;;25.05;14.20;;;;;;;5.13;66.66;92382.19;2051894;70;20184;-69
2022/02/15 10:53:47;;;;;;;24.48;14.30;;;;;;;5.12;67.31;92380.72;2051988;70;20153;-70
2022/02/15 10:56:14;;;;;;;29.70;15.38;;;;;;;5.03;67.99;92382.16;2051942;70;20142;-69
2022/02/15 10:58:40;;;;;;;30.63;15.77;;;;;;;5.25;66.07;92385.91;2051939;70;20156;-69
2022/02/15 11:01:08;;;;;;;26.85;14.90;;;;;;;5.30;65.88;92382.09;2051765;70;20138;-69
2022/02/15 11:03:38;;;;;;;23.67;14.77;;;;;;;5.01;68.07;92373.66;2051990;70;20169;-70
2022/02/15 11:06:06;;;;;;;31.15;15.77;;;;;;;5.06;68.46;92371.91;2048702;70;20153;-70
2022/02/15 11:08:32;;;;;;;28.80;15.90;;;;;;;5.22;67.76;92375.16;2051862;70;20138;-69
2022/02/15 11:11:14;;;;;;;28.65;15.15;;;;;;;5.27;68.02;92383.28;2051865;70;20149;-69
2022/02/15 11:13:41;;;;;;;19.63;12.35;;;;;;;5.38;66.82;92370.81;2051948;70;20147;-70
2022/02/15 11:16:18;;;;;;;20.67;12.20;;;;;;;5.49;66.33;92373.00;2051912;70;20174;-70
2022/02/15 11:18:45;;;;;;;28.10;17.23;;;;;;;5.20;67.58;92370.19;2051913;70;20157;-69
2022/02/15 11:21:51;;;;;;;28.38;17.00;;;;;;;5.33;67.46;92366.25;2051894;70;20276;-73
2022/02/15 11:24:17;;;;;;;27.17;17.92;;;;;;;5.42;66.14;92375.94;2041177;70;20166;-74
2022/02/15 11:26:43;;;;;;;27.75;17.48;;;;;;;5.41;66.82;92374.50;2041167;70;20163;-69
2022/02/15 11:29:22;;;;;;;28.05;16.65;;;;;;;5.57;67.25;92375.66;2041278;70;20258;-70
2022/02/15 11:31:49;;;;;;;33.10;17.52;;;;;;;5.58;66.20;92375.06;2041129;70;20139;-73
2022/02/15 11:34:15;;;;;;;33.28;17.80;;;;;;;5.67;66.57;92375.69;2041257;70;20238;-70
2022/02/15 11:36:52;;;;;;;29.05;17.92;;;;;;;5.19;68.07;92365.91;2041212;70;20186;-75
2022/02/15 11:39:26;;;;;;;36.40;21.85;;;;;;;5.41;65.66;92369.63;2041186;70;20605;-70
2022/02/15 11:41:56;;;;;;;38.22;22.80;;;;;;;5.56;65.98;92366.56;2041415;70;20175;-74
2022/02/15 11:44:36;;;;;;;36.75;22.40;;;;;;;5.55;67.21;92365.09;2041247;70;20695;-71
2022/02/15 11:47:12;;;;;;;33.40;19.92;;;;;;;5.77;66.50;92374.38;2041082;70;20143;-70